sensor_id;sensor_type;location;lat;lon;timestamp;pressure;altitude;pressure_sealevel;temperature;humidity
31761;BME280;18335;51.486;7.562;2023-06-22T00:00:49;100473.69;;;21.13;100.00
31761;BME280;18335;51.486;7.562;2023-06-22T00:03:16;100466.63;;;21.17;100.00
31761;BME280;18335;51.486;7.562;2023-06-22T00:05:43;100468.31;;;21.18;100.00
31761;BME280;18335;51.486;7.562;2023-06-22T00:08:10;100475.84;;;21.35;100.00
31761;BME280;18335;51.486;7.562;2023-06-22T00:10:37;100470.97;;;21.31;100.00
31761;BME280;18335;51.486;7.562;2023-06-22T00:13:05;100469.72;;;21.27;100.00
31761;BME280;18335;51.486;7.562;2023-06-22T00:15:32;100477.88;;;21.22;100.00
31761;BME280;18335;51.486;7.562;2023-06-22T00:17:59;100477.91;;;21.40;100.00
31761;BME280;18335;51.486;7.562;2023-06-22T00:20:27;100476.03;;;21.34;100.00
31761;BME280;18335;51.486;7.562;2023-06-22T00:22:56;100474.50;;;21.20;100.00
31761;BME280;18335;51.486;7.562;2023-06-22T00:25:23;100471.09;;;21.36;100.00
31761;BME280;18335;51.486;7.562;2023-06-22T00:27:50;100469.63;;;21.33;100.00
31761;BME280;18335;51.486;7.562;2023-06-22T00:30:18;100459.06;;;21.24;100.00
31761;BME280;18335;51.486;7.562;2023-06-22T00:32:45;100459.38;;;21.16;100.00
31761;BME280;18335;51.486;7.562;2023-06-22T00:35:13;100468.31;;;21.36;100.00
31761;BME280;18335;51.486;7.562;2023-06-22T00:37:40;100460.56;;;21.02;100.00
31761;BME280;18335;51.486;7.562;2023-06-22T00:40:08;100467.84;;;21.21;100.00
31761;BME280;18335;51.486;7.562;2023-06-22T00:42:37;100463.84;;;21.17;100.00
31761;BME280;18335;51.486;7.562;2023-06-22T00:45:05;100467.97;;;21.08;100.00
31761;BME280;18335;51.486;7.562;2023-06-22T00:47:34;100463.09;;;21.03;100.00
31761;BME280;18335;51.486;7.562;2023-06-22T00:50:06;100469.94;;;20.76;100.00
31761;BME280;18335;51.486;7.562;2023-06-22T00:52:33;100475.44;;;20.82;100.00
31761;BME280;18335;51.486;7.562;2023-06-22T00:55:01;100469.91;;;20.82;100.00
31761;BME280;18335;51.486;7.562;2023-06-22T00:57:30;100462.22;;;20.84;100.00
31761;BME280;18335;51.486;7.562;2023-06-22T00:59:57;100469.22;;;20.87;100.00
31761;BME280;18335;51.486;7.562;2023-06-22T01:02:24;100474.84;;;20.80;100.00
31761;BME280;18335;51.486;7.562;2023-06-22T01:04:52;100471.09;;;20.68;100.00
31761;BME280;18335;51.486;7.562;2023-06-22T01:07:34;100466.50;;;20.80;100.00
31761;BME280;18335;51.486;7.562;2023-06-22T01:10:07;100460.25;;;20.85;100.00
31761;BME280;18335;51.486;7.562;2023-06-22T01:12:39;100457.56;;;20.78;100.00
31761;BME280;18335;51.486;7.562;2023-06-22T01:15:10;100463.72;;;20.80;100.00
31761;BME280;18335;51.486;7.562;2023-06-22T01:17:40;100472.66;;;20.82;100.00
31761;BME280;18335;51.486;7.562;2023-06-22T01:20:12;100469.34;;;20.74;100.00
31761;BME280;18335;51.486;7.562;2023-06-22T01:22:48;100467.00;;;20.71;100.00
31761;BME280;18335;51.486;7.562;2023-06-22T01:25:20;100457.16;;;20.50;100.00
31761;BME280;18335;51.486;7.562;2023-06-22T01:27:56;100457.97;;;20.57;100.00
31761;BME280;18335;51.486;7.562;2023-06-22T01:30:28;100450.88;;;20.61;100.00
31761;BME280;18335;51.486;7.562;2023-06-22T01:32:57;100456.16;;;20.69;100.00
31761;BME280;18335;51.486;7.562;2023-06-22T01:35:25;100460.44;;;20.65;100.00
31761;BME280;18335;51.486;7.562;2023-06-22T01:37:52;100458.81;;;20.58;100.00
31761;BME280;18335;51.486;7.562;2023-06-22T01:40:19;100457.31;;;20.55;100.00
31761;BME280;18335;51.486;7.562;2023-06-22T01:42:50;100454.38;;;20.50;100.00
31761;BME280;18335;51.486;7.562;2023-06-22T01:45:18;100452.41;;;20.57;100.00
31761;BME280;18335;51.486;7.562;2023-06-22T01:47:47;100454.38;;;20.50;100.00
31761;BME280;18335;51.486;7.562;2023-06-22T01:52:40;100452.50;;;20.44;100.00
31761;BME280;18335;51.486;7.562;2023-06-22T01:55:08;100452.50;;;20.44;100.00
31761;BME280;18335;51.486;7.562;2023-06-22T01:57:35;100446.47;;;20.54;100.00
31761;BME280;18335;51.486;7.562;2023-06-22T02:00:04;100457.16;;;20.50;100.00
31761;BME280;18335;51.486;7.562;2023-06-22T02:02:44;100451.00;;;20.48;100.00
31761;BME280;18335;51.486;7.562;2023-06-22T02:05:17;100455.00;;;20.52;100.00
31761;BME280;18335;51.486;7.562;2023-06-22T02:07:49;100453.84;;;20.66;100.00
31761;BME280;18335;51.486;7.562;2023-06-22T02:10:18;100460.09;;;20.55;100.00
31761;BME280;18335;51.486;7.562;2023-06-22T02:12:47;100454.72;;;20.35;100.00
31761;BME280;18335;51.486;7.562;2023-06-22T02:15:15;100437.47;;;20.58;100.00
31761;BME280;18335;51.486;7.562;2023-06-22T02:17:42;100450.25;;;20.59;100.00
31761;BME280;18335;51.486;7.562;2023-06-22T02:20:12;100450.81;;;20.43;100.00
31761;BME280;18335;51.486;7.562;2023-06-22T02:22:40;100451.66;;;20.43;100.00
31761;BME280;18335;51.486;7.562;2023-06-22T02:25:10;100454.22;;;20.45;100.00
31761;BME280;18335;51.486;7.562;2023-06-22T02:27:37;100445.81;;;20.27;100.00
31761;BME280;18335;51.486;7.562;2023-06-22T02:30:07;100440.28;;;20.27;100.00
31761;BME280;18335;51.486;7.562;2023-06-22T02:32:34;100437.91;;;20.24;100.00
31761;BME280;18335;51.486;7.562;2023-06-22T02:35:01;100438.44;;;20.08;100.00
31761;BME280;18335;51.486;7.562;2023-06-22T02:37:29;100434.28;;;20.30;100.00
31761;BME280;18335;51.486;7.562;2023-06-22T02:39:58;100434.09;;;20.25;100.00
31761;BME280;18335;51.486;7.562;2023-06-22T02:42:24;100427.78;;;19.73;100.00
31761;BME280;18335;51.486;7.562;2023-06-22T02:44:51;100428.56;;;19.80;100.00
31761;BME280;18335;51.486;7.562;2023-06-22T02:47:19;100424.59;;;20.08;100.00
31761;BME280;18335;51.486;7.562;2023-06-22T02:49:46;100427.50;;;20.19;100.00
31761;BME280;18335;51.486;7.562;2023-06-22T02:52:13;100424.06;;;20.24;100.00
31761;BME280;18335;51.486;7.562;2023-06-22T02:54:40;100429.69;;;20.11;100.00
31761;BME280;18335;51.486;7.562;2023-06-22T02:57:09;100419.03;;;20.08;100.00
31761;BME280;18335;51.486;7.562;2023-06-22T02:59:39;100427.75;;;20.11;100.00
31761;BME280;18335;51.486;7.562;2023-06-22T03:02:08;100424.59;;;20.08;100.00
31761;BME280;18335;51.486;7.562;2023-06-22T03:04:36;100420.28;;;20.18;100.00
31761;BME280;18335;51.486;7.562;2023-06-22T03:07:04;100419.84;;;20.15;100.00
31761;BME280;18335;51.486;7.562;2023-06-22T03:09:32;100419.16;;;19.95;100.00
31761;BME280;18335;51.486;7.562;2023-06-22T03:11:59;100420.38;;;19.99;100.00
31761;BME280;18335;51.486;7.562;2023-06-22T03:14:34;100418.38;;;19.74;100.00
31761;BME280;18335;51.486;7.562;2023-06-22T03:17:03;100405.81;;;19.78;100.00
31761;BME280;18335;51.486;7.562;2023-06-22T03:19:30;100415.44;;;19.69;100.00
31761;BME280;18335;51.486;7.562;2023-06-22T03:21:59;100414.13;;;19.78;100.00
31761;BME280;18335;51.486;7.562;2023-06-22T03:24:26;100413.91;;;19.80;100.00
31761;BME280;18335;51.486;7.562;2023-06-22T03:26:55;100410.50;;;19.71;100.00
31761;BME280;18335;51.486;7.562;2023-06-22T03:29:22;100413.69;;;19.75;100.00
31761;BME280;18335;51.486;7.562;2023-06-22T03:31:50;100418.47;;;19.55;100.00
31761;BME280;18335;51.486;7.562;2023-06-22T03:34:17;100414.72;;;19.80;100.00
31761;BME280;18335;51.486;7.562;2023-06-22T03:36:44;100415.56;;;19.87;100.00
31761;BME280;18335;51.486;7.562;2023-06-22T03:39:11;100408.94;;;19.88;100.00
31761;BME280;18335;51.486;7.562;2023-06-22T03:41:40;100410.16;;;19.99;100.00
31761;BME280;18335;51.486;7.562;2023-06-22T03:44:07;100422.66;;;20.08;100.00
31761;BME280;18335;51.486;7.562;2023-06-22T03:46:37;100406.88;;;20.15;100.00
31761;BME280;18335;51.486;7.562;2023-06-22T03:49:06;100414.72;;;19.80;100.00
31761;BME280;18335;51.486;7.562;2023-06-22T03:51:32;100411.34;;;19.78;100.00
31761;BME280;18335;51.486;7.562;2023-06-22T03:53:59;100420.09;;;19.75;100.00
31761;BME280;18335;51.486;7.562;2023-06-22T03:56:26;100417.41;;;20.00;100.00
31761;BME280;18335;51.486;7.562;2023-06-22T03:58:53;100413.38;;;19.96;100.00
31761;BME280;18335;51.486;7.562;2023-06-22T04:01:19;100408.41;;;20.05;100.00
31761;BME280;18335;51.486;7.562;2023-06-22T04:03:46;100401.63;;;20.01;100.00
31761;BME280;18335;51.486;7.562;2023-06-22T04:06:16;100404.50;;;20.19;100.00
31761;BME280;18335;51.486;7.562;2023-06-22T04:08:45;100393.47;;;20.12;100.00
31761;BME280;18335;51.486;7.562;2023-06-22T04:11:13;100394.66;;;20.23;100.00
31761;BME280;18335;51.486;7.562;2023-06-22T04:13:40;100387.09;;;20.05;100.00
31761;BME280;18335;51.486;7.562;2023-06-22T04:16:07;100383.06;;;20.39;100.00
31761;BME280;18335;51.486;7.562;2023-06-22T04:18:33;100386.84;;;20.45;100.00
31761;BME280;18335;51.486;7.562;2023-06-22T04:21:01;100385.47;;;20.54;100.00
31761;BME280;18335;51.486;7.562;2023-06-22T04:23:29;100386.66;;;20.64;100.00
31761;BME280;18335;51.486;7.562;2023-06-22T04:25:56;100394.25;;;20.51;100.00
31761;BME280;18335;51.486;7.562;2023-06-22T04:28:23;100392.88;;;20.60;100.00
31761;BME280;18335;51.486;7.562;2023-06-22T04:30:50;100394.91;;;20.71;100.00
31761;BME280;18335;51.486;7.562;2023-06-22T04:33:17;100402.84;;;20.67;100.00
31761;BME280;18335;51.486;7.562;2023-06-22T04:35:45;100389.94;;;20.97;100.00
31761;BME280;18335;51.486;7.562;2023-06-22T04:38:12;100404.13;;;20.89;100.00
31761;BME280;18335;51.486;7.562;2023-06-22T04:40:41;100401.34;;;20.89;100.00
31761;BME280;18335;51.486;7.562;2023-06-22T04:43:07;100396.63;;;20.72;100.00
31761;BME280;18335;51.486;7.562;2023-06-22T04:45:35;100400.25;;;20.72;100.00
31761;BME280;18335;51.486;7.562;2023-06-22T04:48:04;100388.88;;;20.98;100.00
31761;BME280;18335;51.486;7.562;2023-06-22T04:50:31;100398.44;;;21.03;100.00
31761;BME280;18335;51.486;7.562;2023-06-22T04:52:57;100395.81;;;21.08;100.00
31761;BME280;18335;51.486;7.562;2023-06-22T04:55:24;100395.28;;;20.99;100.00
31761;BME280;18335;51.486;7.562;2023-06-22T04:57:52;100394.56;;;21.04;100.00
31761;BME280;18335;51.486;7.562;2023-06-22T05:00:19;100391.81;;;21.04;100.00
31761;BME280;18335;51.486;7.562;2023-06-22T05:02:48;100407.84;;;21.02;100.00
31761;BME280;18335;51.486;7.562;2023-06-22T05:05:15;100403.31;;;20.82;100.00
31761;BME280;18335;51.486;7.562;2023-06-22T05:07:44;100403.78;;;20.79;100.00
31761;BME280;18335;51.486;7.562;2023-06-22T05:10:13;100405.72;;;20.79;100.00
31761;BME280;18335;51.486;7.562;2023-06-22T05:12:41;100399.00;;;20.68;100.00
31761;BME280;18335;51.486;7.562;2023-06-22T05:15:09;100400.75;;;20.63;100.00
31761;BME280;18335;51.486;7.562;2023-06-22T05:17:37;100401.25;;;20.53;100.00
31761;BME280;18335;51.486;7.562;2023-06-22T05:20:09;100406.25;;;20.45;100.00
31761;BME280;18335;51.486;7.562;2023-06-22T05:22:36;100410.88;;;20.19;100.00
31761;BME280;18335;51.486;7.562;2023-06-22T05:25:03;100408.72;;;20.28;100.00
31761;BME280;18335;51.486;7.562;2023-06-22T05:27:29;100403.59;;;20.25;100.00
31761;BME280;18335;51.486;7.562;2023-06-22T05:29:56;100402.25;;;20.34;100.00
31761;BME280;18335;51.486;7.562;2023-06-22T05:32:24;100409.91;;;20.38;100.00
31761;BME280;18335;51.486;7.562;2023-06-22T05:34:51;100407.06;;;20.14;100.00
31761;BME280;18335;51.486;7.562;2023-06-22T05:37:18;100405.38;;;20.44;100.00
31761;BME280;18335;51.486;7.562;2023-06-22T05:39:44;100400.34;;;20.34;100.00
31761;BME280;18335;51.486;7.562;2023-06-22T05:42:11;100407.13;;;20.38;100.00
31761;BME280;18335;51.486;7.562;2023-06-22T05:44:38;100408.59;;;20.41;100.00
31761;BME280;18335;51.486;7.562;2023-06-22T05:47:06;100413.25;;;20.47;100.00
31761;BME280;18335;51.486;7.562;2023-06-22T05:49:34;100412.44;;;20.40;100.00
31761;BME280;18335;51.486;7.562;2023-06-22T05:52:01;100404.22;;;20.33;100.00
31761;BME280;18335;51.486;7.562;2023-06-22T05:54:27;100402.72;;;20.31;100.00
31761;BME280;18335;51.486;7.562;2023-06-22T05:56:54;100399.19;;;20.49;100.00
31761;BME280;18335;51.486;7.562;2023-06-22T05:59:21;100411.22;;;20.36;100.00
31761;BME280;18335;51.486;7.562;2023-06-22T06:01:48;100401.88;;;20.55;100.00
31761;BME280;18335;51.486;7.562;2023-06-22T06:04:16;100413.09;;;20.67;100.00
31761;BME280;18335;51.486;7.562;2023-06-22T06:06:44;100413.00;;;20.73;100.00
31761;BME280;18335;51.486;7.562;2023-06-22T06:09:12;100420.88;;;20.76;100.00
31761;BME280;18335;51.486;7.562;2023-06-22T06:11:39;100420.78;;;20.89;100.00
31761;BME280;18335;51.486;7.562;2023-06-22T06:14:06;100420.91;;;20.94;100.00
31761;BME280;18335;51.486;7.562;2023-06-22T06:16:33;100417.91;;;20.78;100.00
31761;BME280;18335;51.486;7.562;2023-06-22T06:19:00;100414.28;;;20.77;100.00
31761;BME280;18335;51.486;7.562;2023-06-22T06:21:26;100406.91;;;20.89;100.00
31761;BME280;18335;51.486;7.562;2023-06-22T06:23:54;100401.81;;;20.86;100.00
31761;BME280;18335;51.486;7.562;2023-06-22T06:26:21;100397.03;;;20.75;100.00
31761;BME280;18335;51.486;7.562;2023-06-22T06:28:53;100387.78;;;20.81;100.00
31761;BME280;18335;51.486;7.562;2023-06-22T06:31:20;100387.03;;;20.92;100.00
31761;BME280;18335;51.486;7.562;2023-06-22T06:33:46;100388.75;;;21.12;100.00
31761;BME280;18335;51.486;7.562;2023-06-22T06:36:14;100397.34;;;21.04;100.00
31761;BME280;18335;51.486;7.562;2023-06-22T06:38:41;100387.50;;;21.08;100.00
31761;BME280;18335;51.486;7.562;2023-06-22T06:41:09;100382.13;;;21.31;100.00
31761;BME280;18335;51.486;7.562;2023-06-22T06:43:36;100377.44;;;21.49;100.00
31761;BME280;18335;51.486;7.562;2023-06-22T06:46:02;100382.09;;;21.67;100.00
31761;BME280;18335;51.486;7.562;2023-06-22T06:48:29;100381.44;;;21.83;100.00
31761;BME280;18335;51.486;7.562;2023-06-22T06:50:56;100387.09;;;21.77;100.00
31761;BME280;18335;51.486;7.562;2023-06-22T06:53:23;100385.88;;;22.02;100.00
31761;BME280;18335;51.486;7.562;2023-06-22T06:55:49;100386.91;;;22.20;100.00
31761;BME280;18335;51.486;7.562;2023-06-22T06:58:18;100383.66;;;22.23;100.00
31761;BME280;18335;51.486;7.562;2023-06-22T07:00:44;100382.72;;;22.40;100.00
31761;BME280;18335;51.486;7.562;2023-06-22T07:03:11;100373.06;;;22.43;100.00
31761;BME280;18335;51.486;7.562;2023-06-22T07:05:38;100377.69;;;22.08;100.00
31761;BME280;18335;51.486;7.562;2023-06-22T07:08:05;100381.22;;;22.15;100.00
31761;BME280;18335;51.486;7.562;2023-06-22T07:10:31;100386.09;;;22.31;100.00
31761;BME280;18335;51.486;7.562;2023-06-22T07:12:58;100379.13;;;22.40;100.00
31761;BME280;18335;51.486;7.562;2023-06-22T07:15:27;100374.84;;;22.26;100.00
31761;BME280;18335;51.486;7.562;2023-06-22T07:17:53;100377.00;;;22.24;100.00
31761;BME280;18335;51.486;7.562;2023-06-22T07:20:20;100383.31;;;22.31;100.00
31761;BME280;18335;51.486;7.562;2023-06-22T07:22:47;100377.00;;;22.24;100.00
31761;BME280;18335;51.486;7.562;2023-06-22T07:25:14;100374.09;;;22.19;100.00
31761;BME280;18335;51.486;7.562;2023-06-22T07:27:44;100370.94;;;22.03;100.00
31761;BME280;18335;51.486;7.562;2023-06-22T07:30:12;100372.19;;;21.89;100.00
31761;BME280;18335;51.486;7.562;2023-06-22T07:32:40;100366.19;;;21.74;100.00
31761;BME280;18335;51.486;7.562;2023-06-22T07:35:08;100364.16;;;21.81;100.00
31761;BME280;18335;51.486;7.562;2023-06-22T07:37:35;100355.09;;;21.74;100.00
31761;BME280;18335;51.486;7.562;2023-06-22T07:40:01;100357.53;;;21.82;100.00
31761;BME280;18335;51.486;7.562;2023-06-22T07:42:32;100356.88;;;21.98;100.00
31761;BME280;18335;51.486;7.562;2023-06-22T07:44:59;100358.47;;;21.76;100.00
31761;BME280;18335;51.486;7.562;2023-06-22T07:47:27;100354.56;;;21.95;100.00
31761;BME280;18335;51.486;7.562;2023-06-22T07:49:55;100349.88;;;22.08;100.00
31761;BME280;18335;51.486;7.562;2023-06-22T07:52:23;100351.72;;;22.14;100.00
31761;BME280;18335;51.486;7.562;2023-06-22T07:54:51;100349.78;;;22.14;100.00
31761;BME280;18335;51.486;7.562;2023-06-22T07:57:18;100344.31;;;22.49;100.00
31761;BME280;18335;51.486;7.562;2023-06-22T07:59:45;100340.78;;;22.42;100.00
31761;BME280;18335;51.486;7.562;2023-06-22T08:02:12;100343.09;;;22.56;100.00
31761;BME280;18335;51.486;7.562;2023-06-22T08:04:39;100327.47;;;22.44;100.00
31761;BME280;18335;51.486;7.562;2023-06-22T08:07:07;100330.53;;;22.54;100.00
31761;BME280;18335;51.486;7.562;2023-06-22T08:09:35;100326.28;;;22.63;100.00
31761;BME280;18335;51.486;7.562;2023-06-22T08:12:02;100324.22;;;22.58;100.00
31761;BME280;18335;51.486;7.562;2023-06-22T08:14:30;100311.78;;;22.84;100.00
31761;BME280;18335;51.486;7.562;2023-06-22T08:16:57;100306.69;;;22.93;100.00
31761;BME280;18335;51.486;7.562;2023-06-22T08:19:23;100296.22;;;23.23;100.00
31761;BME280;18335;51.486;7.562;2023-06-22T08:21:50;100307.03;;;23.48;100.00
31761;BME280;18335;51.486;7.562;2023-06-22T08:24:18;100305.81;;;23.55;100.00
31761;BME280;18335;51.486;7.562;2023-06-22T08:26:45;100307.69;;;23.66;100.00
31761;BME280;18335;51.486;7.562;2023-06-22T08:29:12;100301.03;;;23.67;100.00
31761;BME280;18335;51.486;7.562;2023-06-22T08:31:39;100308.53;;;23.95;100.00
31761;BME280;18335;51.486;7.562;2023-06-22T08:34:06;100297.50;;;24.34;100.00
31761;BME280;18335;51.486;7.562;2023-06-22T08:36:33;100293.53;;;24.30;100.00
31761;BME280;18335;51.486;7.562;2023-06-22T08:39:03;100291.47;;;24.08;100.00
31761;BME280;18335;51.486;7.562;2023-06-22T08:41:31;100282.03;;;24.09;100.00
31761;BME280;18335;51.486;7.562;2023-06-22T08:43:58;100288.47;;;23.65;100.00
31761;BME280;18335;51.486;7.562;2023-06-22T08:46:25;100280.31;;;24.08;100.00
31761;BME280;18335;51.486;7.562;2023-06-22T08:48:56;100283.66;;;24.22;100.00
31761;BME280;18335;51.486;7.562;2023-06-22T08:51:23;100270.00;;;24.59;100.00
31761;BME280;18335;51.486;7.562;2023-06-22T08:53:50;100272.88;;;24.64;100.00
31761;BME280;18335;51.486;7.562;2023-06-22T08:56:17;100263.91;;;25.00;100.00
31761;BME280;18335;51.486;7.562;2023-06-22T08:58:45;100265.47;;;25.35;100.00
31761;BME280;18335;51.486;7.562;2023-06-22T09:01:12;100256.66;;;25.48;100.00
31761;BME280;18335;51.486;7.562;2023-06-22T09:03:40;100256.66;;;25.69;100.00
31761;BME280;18335;51.486;7.562;2023-06-22T09:06:07;100245.38;;;25.59;100.00
31761;BME280;18335;51.486;7.562;2023-06-22T09:08:35;100240.69;;;25.16;100.00
31761;BME280;18335;51.486;7.562;2023-06-22T09:11:02;100231.66;;;25.58;100.00
31761;BME280;18335;51.486;7.562;2023-06-22T09:13:30;100240.78;;;25.48;100.00
31761;BME280;18335;51.486;7.562;2023-06-22T09:15:58;100236.31;;;25.74;100.00
31761;BME280;18335;51.486;7.562;2023-06-22T09:18:25;100232.00;;;25.93;100.00
31761;BME280;18335;51.486;7.562;2023-06-22T09:20:52;100235.25;;;25.80;100.00
31761;BME280;18335;51.486;7.562;2023-06-22T09:23:18;100237.56;;;26.20;100.00
31761;BME280;18335;51.486;7.562;2023-06-22T09:25:45;100245.69;;;26.16;100.00
31761;BME280;18335;51.486;7.562;2023-06-22T09:28:13;100237.56;;;26.20;100.00
31761;BME280;18335;51.486;7.562;2023-06-22T09:30:39;100238.75;;;26.29;100.00
31761;BME280;18335;51.486;7.562;2023-06-22T09:33:07;100231.06;;;26.14;100.00
31761;BME280;18335;51.486;7.562;2023-06-22T09:35:34;100221.28;;;26.49;100.00
31761;BME280;18335;51.486;7.562;2023-06-22T09:38:01;100214.81;;;26.43;100.00
31761;BME280;18335;51.486;7.562;2023-06-22T09:40:28;100223.34;;;26.68;100.00
31761;BME280;18335;51.486;7.562;2023-06-22T09:42:54;100215.50;;;27.17;100.00
31761;BME280;18335;51.486;7.562;2023-06-22T09:45:21;100205.88;;;26.98;100.00
31761;BME280;18335;51.486;7.562;2023-06-22T09:47:48;100208.75;;;26.61;100.00
31761;BME280;18335;51.486;7.562;2023-06-22T09:50:16;100197.09;;;26.32;100.00
31761;BME280;18335;51.486;7.562;2023-06-22T09:52:43;100186.81;;;26.06;100.00
31761;BME280;18335;51.486;7.562;2023-06-22T09:55:12;100183.13;;;26.37;100.00
31761;BME280;18335;51.486;7.562;2023-06-22T09:57:44;100175.69;;;26.53;100.00
31761;BME280;18335;51.486;7.562;2023-06-22T10:00:13;100178.50;;;26.58;100.00
31761;BME280;18335;51.486;7.562;2023-06-22T10:02:41;100170.56;;;26.92;100.00
31761;BME280;18335;51.486;7.562;2023-06-22T10:05:08;100177.75;;;26.73;100.00
31761;BME280;18335;51.486;7.562;2023-06-22T10:07:36;100172.22;;;26.83;100.00
31761;BME280;18335;51.486;7.562;2023-06-22T10:10:06;100166.13;;;27.01;100.00
31761;BME280;18335;51.486;7.562;2023-06-22T10:12:33;100171.25;;;27.34;100.00
31761;BME280;18335;51.486;7.562;2023-06-22T10:15:00;100166.72;;;27.18;100.00
31761;BME280;18335;51.486;7.562;2023-06-22T10:17:27;100171.06;;;27.91;100.00
31761;BME280;18335;51.486;7.562;2023-06-22T10:19:54;100170.78;;;27.88;100.00
31761;BME280;18335;51.486;7.562;2023-06-22T10:22:21;100174.44;;;27.83;100.00
31761;BME280;18335;51.486;7.562;2023-06-22T10:24:49;100175.50;;;27.57;100.00
31761;BME280;18335;51.486;7.562;2023-06-22T10:27:15;100172.94;;;27.40;100.00
31761;BME280;18335;51.486;7.562;2023-06-22T10:29:42;100167.38;;;27.45;100.00
31761;BME280;18335;51.486;7.562;2023-06-22T10:32:09;100154.50;;;27.65;100.00
31761;BME280;18335;51.486;7.562;2023-06-22T10:34:36;100149.19;;;27.83;100.00
31761;BME280;18335;51.486;7.562;2023-06-22T10:37:03;100136.03;;;28.04;100.00
31761;BME280;18335;51.486;7.562;2023-06-22T10:39:29;100126.31;;;28.55;100.00
31761;BME280;18335;51.486;7.562;2023-06-22T10:41:58;100118.69;;;28.81;100.00
31761;BME280;18335;51.486;7.562;2023-06-22T10:44:24;100114.16;;;29.34;100.00
31761;BME280;18335;51.486;7.562;2023-06-22T10:46:51;100124.91;;;29.22;100.00
31761;BME280;18335;51.486;7.562;2023-06-22T10:49:18;100123.19;;;28.77;100.00
31761;BME280;18335;51.486;7.562;2023-06-22T10:51:44;100125.88;;;28.28;100.00
31761;BME280;18335;51.486;7.562;2023-06-22T10:54:11;100134.59;;;27.76;100.00
31761;BME280;18335;51.486;7.562;2023-06-22T10:56:39;100125.56;;;27.34;100.00
31761;BME280;18335;51.486;7.562;2023-06-22T10:59:07;100104.56;;;27.26;100.00
31761;BME280;18335;51.486;7.562;2023-06-22T11:01:34;100107.34;;;27.36;100.00
31761;BME280;18335;51.486;7.562;2023-06-22T11:04:02;100107.38;;;27.31;100.00
31761;BME280;18335;51.486;7.562;2023-06-22T11:06:29;100103.75;;;27.51;100.00
31761;BME280;18335;51.486;7.562;2023-06-22T11:08:56;100112.41;;;27.39;100.00
31761;BME280;18335;51.486;7.562;2023-06-22T11:11:24;100123.84;;;27.13;100.00
31761;BME280;18335;51.486;7.562;2023-06-22T11:13:52;100136.97;;;26.97;100.00
31761;BME280;18335;51.486;7.562;2023-06-22T11:16:20;100157.56;;;26.66;100.00
31761;BME280;18335;51.486;7.562;2023-06-22T11:18:47;100185.53;;;26.61;100.00
31761;BME280;18335;51.486;7.562;2023-06-22T11:21:14;100194.97;;;26.50;100.00
31761;BME280;18335;51.486;7.562;2023-06-22T11:23:41;100207.97;;;25.92;100.00
31761;BME280;18335;51.486;7.562;2023-06-22T11:26:08;100206.34;;;25.69;100.00
31761;BME280;18335;51.486;7.562;2023-06-22T11:28:35;100207.97;;;25.39;100.00
31761;BME280;18335;51.486;7.562;2023-06-22T11:31:02;100212.63;;;25.06;100.00
31761;BME280;18335;51.486;7.562;2023-06-22T11:33:31;100197.22;;;25.04;100.00
31761;BME280;18335;51.486;7.562;2023-06-22T11:35:58;100191.94;;;24.81;100.00
31761;BME280;18335;51.486;7.562;2023-06-22T11:38:25;100192.88;;;24.69;100.00
31761;BME280;18335;51.486;7.562;2023-06-22T11:40:52;100186.63;;;24.62;100.00
31761;BME280;18335;51.486;7.562;2023-06-22T11:43:18;100174.06;;;24.60;100.00
31761;BME280;18335;51.486;7.562;2023-06-22T11:45:45;100181.81;;;24.36;100.00
31761;BME280;18335;51.486;7.562;2023-06-22T11:48:12;100178.38;;;24.51;100.00
31761;BME280;18335;51.486;7.562;2023-06-22T11:50:40;100168.97;;;24.57;100.00
31761;BME280;18335;51.486;7.562;2023-06-22T11:53:07;100171.63;;;24.25;100.00
31761;BME280;18335;51.486;7.562;2023-06-22T11:55:34;100168.94;;;24.35;100.00
31761;BME280;18335;51.486;7.562;2023-06-22T11:58:01;100173.16;;;24.16;100.00
31761;BME280;18335;51.486;7.562;2023-06-22T12:00:29;100173.66;;;24.13;100.00
31761;BME280;18335;51.486;7.562;2023-06-22T12:02:56;100176.59;;;24.06;100.00
31761;BME280;18335;51.486;7.562;2023-06-22T12:05:23;100175.31;;;23.97;100.00
31761;BME280;18335;51.486;7.562;2023-06-22T12:07:53;100180.13;;;24.02;100.00
31761;BME280;18335;51.486;7.562;2023-06-22T12:10:20;100179.97;;;23.75;100.00
31761;BME280;18335;51.486;7.562;2023-06-22T12:12:46;100172.19;;;23.60;100.00
31761;BME280;18335;51.486;7.562;2023-06-22T12:15:13;100170.50;;;23.43;100.00
31761;BME280;18335;51.486;7.562;2023-06-22T12:17:40;100168.09;;;23.35;100.00
31761;BME280;18335;51.486;7.562;2023-06-22T12:20:08;100172.47;;;23.31;100.00
31761;BME280;18335;51.486;7.562;2023-06-22T12:22:35;100181.75;;;23.36;100.00
31761;BME280;18335;51.486;7.562;2023-06-22T12:25:05;100185.88;;;23.34;100.00
31761;BME280;18335;51.486;7.562;2023-06-22T12:27:32;100182.06;;;22.95;100.00
31761;BME280;18335;51.486;7.562;2023-06-22T12:29:59;100180.13;;;22.95;100.00
31761;BME280;18335;51.486;7.562;2023-06-22T12:32:26;100194.03;;;22.95;100.00
31761;BME280;18335;51.486;7.562;2023-06-22T12:34:52;100216.22;;;22.90;100.00
31761;BME280;18335;51.486;7.562;2023-06-22T12:37:19;100225.50;;;22.96;100.00
31761;BME280;18335;51.486;7.562;2023-06-22T12:39:47;100219.63;;;23.09;100.00
31761;BME280;18335;51.486;7.562;2023-06-22T12:42:15;100186.41;;;23.02;100.00
31761;BME280;18335;51.486;7.562;2023-06-22T12:44:42;100170.88;;;22.78;100.00